sensor_id;sensor_type;location;lat;lon;timestamp;pressure;altitude;pressure_sealevel;temperature;humidity
2875;BME280;1445;52.600;13.328;2023-05-28T00:01:52;101519.00;;;15.16;100.00
2875;BME280;1445;52.600;13.328;2023-05-28T00:04:17;101524.78;;;15.06;100.00
2875;BME280;1445;52.600;13.328;2023-05-28T00:06:42;101513.72;;;14.92;100.00
2875;BME280;1445;52.600;13.328;2023-05-28T00:09:08;101515.47;;;14.88;100.00
2875;BME280;1445;52.600;13.328;2023-05-28T00:11:34;101517.31;;;14.93;100.00
2875;BME280;1445;52.600;13.328;2023-05-28T00:14:00;101508.59;;;14.86;100.00
2875;BME280;1445;52.600;13.328;2023-05-28T00:16:25;101513.75;;;14.78;100.00
2875;BME280;1445;52.600;13.328;2023-05-28T00:18:51;101506.09;;;14.84;100.00
2875;BME280;1445;52.600;13.328;2023-05-28T00:21:17;101511.88;;;14.74;100.00
2875;BME280;1445;52.600;13.328;2023-05-28T00:23:42;101517.81;;;14.81;100.00
2875;BME280;1445;52.600;13.328;2023-05-28T00:26:07;101508.81;;;14.75;100.00
2875;BME280;1445;52.600;13.328;2023-05-28T00:28:33;101500.47;;;14.75;100.00
2875;BME280;1445;52.600;13.328;2023-05-28T00:30:58;101501.22;;;14.67;100.00
2875;BME280;1445;52.600;13.328;2023-05-28T00:33:24;101500.16;;;14.63;100.00
2875;BME280;1445;52.600;13.328;2023-05-28T00:35:49;101501.03;;;14.50;100.00
2875;BME280;1445;52.600;13.328;2023-05-28T00:38:20;101499.88;;;14.37;100.00
2875;BME280;1445;52.600;13.328;2023-05-28T00:40:45;101493.78;;;14.35;100.00
2875;BME280;1445;52.600;13.328;2023-05-28T00:43:10;101501.41;;;14.29;100.00
2875;BME280;1445;52.600;13.328;2023-05-28T00:45:36;101492.47;;;14.19;100.00
2875;BME280;1445;52.600;13.328;2023-05-28T00:48:01;101497.81;;;14.15;100.00
2875;BME280;1445;52.600;13.328;2023-05-28T00:50:27;101492.75;;;14.03;100.00
2875;BME280;1445;52.600;13.328;2023-05-28T00:52:53;101494.16;;;13.73;100.00
2875;BME280;1445;52.600;13.328;2023-05-28T00:55:19;101492.91;;;13.66;100.00
2875;BME280;1445;52.600;13.328;2023-05-28T00:57:46;101489.94;;;13.62;100.00
2875;BME280;1445;52.600;13.328;2023-05-28T01:00:12;101494.03;;;13.65;100.00
2875;BME280;1445;52.600;13.328;2023-05-28T01:02:39;101492.06;;;13.65;100.00
2875;BME280;1445;52.600;13.328;2023-05-28T01:05:05;101497.31;;;13.67;100.00
2875;BME280;1445;52.600;13.328;2023-05-28T01:07:31;101490.66;;;13.68;100.00
2875;BME280;1445;52.600;13.328;2023-05-28T01:09:58;101488.50;;;13.65;100.00
2875;BME280;1445;52.600;13.328;2023-05-28T01:12:24;101481.91;;;13.60;100.00
2875;BME280;1445;52.600;13.328;2023-05-28T01:14:51;101479.91;;;13.47;100.00
2875;BME280;1445;52.600;13.328;2023-05-28T01:17:18;101483.19;;;13.35;100.00
2875;BME280;1445;52.600;13.328;2023-05-28T01:19:44;101485.56;;;13.42;100.00
2875;BME280;1445;52.600;13.328;2023-05-28T01:22:13;101485.19;;;13.49;100.00
2875;BME280;1445;52.600;13.328;2023-05-28T01:24:41;101481.16;;;13.41;100.00
2875;BME280;1445;52.600;13.328;2023-05-28T01:27:07;101482.75;;;13.28;100.00
2875;BME280;1445;52.600;13.328;2023-05-28T01:29:32;101490.50;;;13.26;100.00
2875;BME280;1445;52.600;13.328;2023-05-28T01:31:58;101491.94;;;13.05;100.00
2875;BME280;1445;52.600;13.328;2023-05-28T01:34:23;101498.06;;;13.21;100.00
2875;BME280;1445;52.600;13.328;2023-05-28T01:36:55;101489.69;;;13.07;100.00
2875;BME280;1445;52.600;13.328;2023-05-28T01:39:24;101497.31;;;13.15;100.00
2875;BME280;1445;52.600;13.328;2023-05-28T01:41:50;101486.94;;;13.07;100.00
2875;BME280;1445;52.600;13.328;2023-05-28T01:44:17;101497.00;;;12.98;100.00
2875;BME280;1445;52.600;13.328;2023-05-28T01:46:45;101484.31;;;12.97;100.00
2875;BME280;1445;52.600;13.328;2023-05-28T01:49:12;101487.06;;;12.97;100.00
2875;BME280;1445;52.600;13.328;2023-05-28T01:51:38;101488.50;;;12.94;100.00
2875;BME280;1445;52.600;13.328;2023-05-28T01:54:04;101477.72;;;12.93;100.00
2875;BME280;1445;52.600;13.328;2023-05-28T01:56:29;101475.94;;;12.83;100.00
2875;BME280;1445;52.600;13.328;2023-05-28T01:58:55;101482.22;;;12.88;100.00
2875;BME280;1445;52.600;13.328;2023-05-28T02:01:27;101473.38;;;12.68;100.00
2875;BME280;1445;52.600;13.328;2023-05-28T02:03:56;101481.50;;;12.59;100.00
2875;BME280;1445;52.600;13.328;2023-05-28T02:06:22;101474.25;;;12.63;100.00
2875;BME280;1445;52.600;13.328;2023-05-28T02:08:47;101482.09;;;12.56;100.00
2875;BME280;1445;52.600;13.328;2023-05-28T02:11:13;101480.78;;;12.53;100.00
2875;BME280;1445;52.600;13.328;2023-05-28T02:13:38;101479.56;;;12.40;100.00
2875;BME280;1445;52.600;13.328;2023-05-28T02:16:05;101477.31;;;12.43;100.00
2875;BME280;1445;52.600;13.328;2023-05-28T02:18:31;101469.06;;;12.37;100.00
2875;BME280;1445;52.600;13.328;2023-05-28T02:20:57;101472.97;;;12.36;100.00
2875;BME280;1445;52.600;13.328;2023-05-28T02:23:22;101478.63;;;12.26;100.00
2875;BME280;1445;52.600;13.328;2023-05-28T02:25:48;101479.66;;;12.30;100.00
2875;BME280;1445;52.600;13.328;2023-05-28T02:28:13;101473.09;;;12.26;100.00
2875;BME280;1445;52.600;13.328;2023-05-28T02:30:38;101476.78;;;12.16;100.00
2875;BME280;1445;52.600;13.328;2023-05-28T02:33:04;101474.81;;;12.22;100.00
2875;BME280;1445;52.600;13.328;2023-05-28T02:35:31;101486.97;;;12.21;100.00
2875;BME280;1445;52.600;13.328;2023-05-28T02:37:56;101480.59;;;12.21;100.00
2875;BME280;1445;52.600;13.328;2023-05-28T02:40:22;101480.97;;;12.14;100.00
2875;BME280;1445;52.600;13.328;2023-05-28T02:42:47;101476.22;;;12.20;100.00
2875;BME280;1445;52.600;13.328;2023-05-28T02:45:13;101479.66;;;12.06;100.00
2875;BME280;1445;52.600;13.328;2023-05-28T02:47:38;101481.38;;;12.02;100.00
2875;BME280;1445;52.600;13.328;2023-05-28T02:50:05;101480.69;;;12.15;100.00
2875;BME280;1445;52.600;13.328;2023-05-28T02:52:30;101475.53;;;12.04;100.00
2875;BME280;1445;52.600;13.328;2023-05-28T02:54:55;101474.50;;;12.00;100.00
2875;BME280;1445;52.600;13.328;2023-05-28T02:57:21;101483.75;;;11.90;100.00
2875;BME280;1445;52.600;13.328;2023-05-28T02:59:47;101478.56;;;11.78;100.00
2875;BME280;1445;52.600;13.328;2023-05-28T03:02:12;101485.72;;;11.79;100.00
2875;BME280;1445;52.600;13.328;2023-05-28T03:04:38;101484.19;;;11.68;100.00
2875;BME280;1445;52.600;13.328;2023-05-28T03:07:03;101481.38;;;11.73;100.00
2875;BME280;1445;52.600;13.328;2023-05-28T03:09:29;101489.78;;;11.58;100.00
2875;BME280;1445;52.600;13.328;2023-05-28T03:11:54;101487.59;;;11.60;100.00
2875;BME280;1445;52.600;13.328;2023-05-28T03:14:20;101484.28;;;11.58;100.00
2875;BME280;1445;52.600;13.328;2023-05-28T03:16:45;101475.06;;;11.67;100.00
2875;BME280;1445;52.600;13.328;2023-05-28T03:19:11;101485.31;;;11.67;100.00
2875;BME280;1445;52.600;13.328;2023-05-28T03:21:36;101479.28;;;11.60;100.00
2875;BME280;1445;52.600;13.328;2023-05-28T03:24:02;101469.63;;;11.62;100.00
2875;BME280;1445;52.600;13.328;2023-05-28T03:26:27;101477.34;;;11.60;100.00
2875;BME280;1445;52.600;13.328;2023-05-28T03:28:52;101475.13;;;11.62;100.00
2875;BME280;1445;52.600;13.328;2023-05-28T03:31:19;101476.56;;;11.55;100.00
2875;BME280;1445;52.600;13.328;2023-05-28T03:33:45;101478.97;;;11.66;100.00
2875;BME280;1445;52.600;13.328;2023-05-28T03:36:10;101477.25;;;11.70;100.00
2875;BME280;1445;52.600;13.328;2023-05-28T03:38:35;101467.84;;;11.71;100.00
2875;BME280;1445;52.600;13.328;2023-05-28T03:41:01;101470.28;;;11.78;100.00
2875;BME280;1445;52.600;13.328;2023-05-28T03:43:27;101475.22;;;11.81;100.00
2875;BME280;1445;52.600;13.328;2023-05-28T03:45:52;101468.56;;;11.87;100.00
2875;BME280;1445;52.600;13.328;2023-05-28T03:48:18;101468.50;;;11.92;100.00
2875;BME280;1445;52.600;13.328;2023-05-28T03:50:43;101459.38;;;11.92;100.00
2875;BME280;1445;52.600;13.328;2023-05-28T03:53:08;101473.03;;;11.78;100.00
2875;BME280;1445;52.600;13.328;2023-05-28T03:55:34;101471.25;;;11.92;100.00
2875;BME280;1445;52.600;13.328;2023-05-28T03:58:03;101471.47;;;12.01;100.00
2875;BME280;1445;52.600;13.328;2023-05-28T04:00:29;101479.28;;;12.18;100.00
2875;BME280;1445;52.600;13.328;2023-05-28T04:02:54;101473.09;;;12.26;100.00
2875;BME280;1445;52.600;13.328;2023-05-28T04:05:19;101473.84;;;12.32;100.00
2875;BME280;1445;52.600;13.328;2023-05-28T04:07:45;101472.84;;;12.47;100.00
2875;BME280;1445;52.600;13.328;2023-05-28T04:10:10;101468.28;;;12.56;100.00
2875;BME280;1445;52.600;13.328;2023-05-28T04:12:36;101472.72;;;12.57;100.00
2875;BME280;1445;52.600;13.328;2023-05-28T04:15:01;101475.94;;;12.64;100.00
2875;BME280;1445;52.600;13.328;2023-05-28T04:17:29;101475.94;;;12.64;100.00
2875;BME280;1445;52.600;13.328;2023-05-28T04:19:54;101470.09;;;12.65;100.00
2875;BME280;1445;52.600;13.328;2023-05-28T04:22:19;101473.16;;;12.83;100.00
2875;BME280;1445;52.600;13.328;2023-05-28T04:24:46;101477.66;;;12.98;100.00
2875;BME280;1445;52.600;13.328;2023-05-28T04:27:12;101467.56;;;13.07;100.00
2875;BME280;1445;52.600;13.328;2023-05-28T04:29:38;101476.34;;;13.09;100.00
2875;BME280;1445;52.600;13.328;2023-05-28T04:32:04;101468.75;;;13.01;100.00
2875;BME280;1445;52.600;13.328;2023-05-28T04:34:30;101466.19;;;13.23;100.00
2875;BME280;1445;52.600;13.328;2023-05-28T04:36:57;101467.47;;;13.31;100.00
2875;BME280;1445;52.600;13.328;2023-05-28T04:39:23;101468.72;;;13.39;100.00
2875;BME280;1445;52.600;13.328;2023-05-28T04:41:49;101470.91;;;13.42;100.00
2875;BME280;1445;52.600;13.328;2023-05-28T04:44:15;101470.28;;;13.45;100.00
2875;BME280;1445;52.600;13.328;2023-05-28T04:46:43;101462.47;;;13.47;100.00
2875;BME280;1445;52.600;13.328;2023-05-28T04:49:10;101470.72;;;13.52;100.00
2875;BME280;1445;52.600;13.328;2023-05-28T04:51:38;101470.44;;;13.67;100.00
2875;BME280;1445;52.600;13.328;2023-05-28T04:54:03;101476.63;;;13.78;100.00
2875;BME280;1445;52.600;13.328;2023-05-28T04:56:29;101475.69;;;13.82;100.00
2875;BME280;1445;52.600;13.328;2023-05-28T04:58:54;101469.47;;;13.91;100.00
2875;BME280;1445;52.600;13.328;2023-05-28T05:01:20;101467.59;;;14.00;100.00
2875;BME280;1445;52.600;13.328;2023-05-28T05:03:48;101471.63;;;14.07;100.00
2875;BME280;1445;52.600;13.328;2023-05-28T05:06:13;101471.31;;;14.23;100.00
2875;BME280;1445;52.600;13.328;2023-05-28T05:08:38;101471.59;;;14.21;100.00
2875;BME280;1445;52.600;13.328;2023-05-28T05:11:04;101467.09;;;14.39;100.00
2875;BME280;1445;52.600;13.328;2023-05-28T05:13:31;101476.44;;;14.43;100.00
2875;BME280;1445;52.600;13.328;2023-05-28T05:15:57;101473.28;;;14.50;100.00
2875;BME280;1445;52.600;13.328;2023-05-28T05:18:22;101457.25;;;14.61;100.00
2875;BME280;1445;52.600;13.328;2023-05-28T05:20:48;101459.50;;;14.59;100.00
2875;BME280;1445;52.600;13.328;2023-05-28T05:23:13;101456.91;;;14.62;100.00
2875;BME280;1445;52.600;13.328;2023-05-28T05:25:39;101452.66;;;14.78;100.00
2875;BME280;1445;52.600;13.328;2023-05-28T05:28:04;101456.94;;;14.85;100.00
2875;BME280;1445;52.600;13.328;2023-05-28T05:30:29;101448.38;;;14.95;100.00
2875;BME280;1445;52.600;13.328;2023-05-28T05:32:55;101447.94;;;15.01;100.00
2875;BME280;1445;52.600;13.328;2023-05-28T05:35:20;101449.03;;;15.14;100.00
2875;BME280;1445;52.600;13.328;2023-05-28T05:37:46;101444.69;;;15.22;100.00
2875;BME280;1445;52.600;13.328;2023-05-28T05:40:12;101441.78;;;15.27;100.00
2875;BME280;1445;52.600;13.328;2023-05-28T05:42:37;101448.97;;;15.28;100.00
2875;BME280;1445;52.600;13.328;2023-05-28T05:45:04;101446.25;;;15.37;100.00
2875;BME280;1445;52.600;13.328;2023-05-28T05:47:30;101442.72;;;15.45;100.00
2875;BME280;1445;52.600;13.328;2023-05-28T05:49:56;101455.47;;;15.46;100.00
2875;BME280;1445;52.600;13.328;2023-05-28T05:52:23;101450.44;;;15.48;100.00
2875;BME280;1445;52.600;13.328;2023-05-28T05:54:48;101453.75;;;15.59;100.00
2875;BME280;1445;52.600;13.328;2023-05-28T05:57:14;101458.22;;;15.68;100.00
2875;BME280;1445;52.600;13.328;2023-05-28T05:59:40;101455.06;;;15.84;100.00
2875;BME280;1445;52.600;13.328;2023-05-28T06:02:05;101456.00;;;15.79;100.00
2875;BME280;1445;52.600;13.328;2023-05-28T06:04:31;101459.47;;;15.85;100.00
2875;BME280;1445;52.600;13.328;2023-05-28T06:07:00;101465.06;;;15.93;100.00
2875;BME280;1445;52.600;13.328;2023-05-28T06:09:29;101461.81;;;16.00;100.00
2875;BME280;1445;52.600;13.328;2023-05-28T06:11:54;101466.78;;;16.12;100.00
2875;BME280;1445;52.600;13.328;2023-05-28T06:14:20;101460.94;;;16.31;100.00
2875;BME280;1445;52.600;13.328;2023-05-28T06:16:46;101459.03;;;16.40;100.00
2875;BME280;1445;52.600;13.328;2023-05-28T06:19:12;101456.59;;;16.47;100.00
2875;BME280;1445;52.600;13.328;2023-05-28T06:21:38;101458.06;;;16.53;100.00
2875;BME280;1445;52.600;13.328;2023-05-28T06:24:03;101454.31;;;16.66;100.00
2875;BME280;1445;52.600;13.328;2023-05-28T06:26:29;101457.97;;;16.76;100.00
2875;BME280;1445;52.600;13.328;2023-05-28T06:28:54;101458.81;;;16.85;100.00
2875;BME280;1445;52.600;13.328;2023-05-28T06:31:20;101450.13;;;17.04;100.00
2875;BME280;1445;52.600;13.328;2023-05-28T06:33:46;101447.31;;;17.12;100.00
2875;BME280;1445;52.600;13.328;2023-05-28T06:36:11;101450.09;;;17.12;100.00
2875;BME280;1445;52.600;13.328;2023-05-28T06:38:37;101449.91;;;17.26;96.59
2875;BME280;1445;52.600;13.328;2023-05-28T06:41:02;101455.31;;;17.40;92.89
2875;BME280;1445;52.600;13.328;2023-05-28T06:43:28;101453.50;;;17.44;93.52
2875;BME280;1445;52.600;13.328;2023-05-28T06:45:53;101454.00;;;17.46;94.38
2875;BME280;1445;52.600;13.328;2023-05-28T06:48:19;101452.63;;;17.70;86.53
2875;BME280;1445;52.600;13.328;2023-05-28T06:50:44;101455.06;;;17.71;81.06
2875;BME280;1445;52.600;13.328;2023-05-28T06:53:10;101457.19;;;17.83;83.40
2875;BME280;1445;52.600;13.328;2023-05-28T06:55:35;101456.88;;;17.84;80.95
2875;BME280;1445;52.600;13.328;2023-05-28T06:58:01;101454.34;;;18.00;79.67
2875;BME280;1445;52.600;13.328;2023-05-28T07:00:26;101455.78;;;18.15;82.32
2875;BME280;1445;52.600;13.328;2023-05-28T07:02:52;101452.75;;;18.29;84.42
2875;BME280;1445;52.600;13.328;2023-05-28T07:05:17;101453.63;;;18.42;66.73
2875;BME280;1445;52.600;13.328;2023-05-28T07:07:42;101451.81;;;18.46;62.38
2875;BME280;1445;52.600;13.328;2023-05-28T07:10:08;101456.84;;;18.52;55.85
2875;BME280;1445;52.600;13.328;2023-05-28T07:12:35;101460.84;;;18.13;51.79
2875;BME280;1445;52.600;13.328;2023-05-28T07:15:03;101460.19;;;18.16;51.76
2875;BME280;1445;52.600;13.328;2023-05-28T07:17:28;101459.31;;;18.24;53.96
2875;BME280;1445;52.600;13.328;2023-05-28T07:19:53;101459.66;;;18.52;55.88
2875;BME280;1445;52.600;13.328;2023-05-28T07:22:19;101457.63;;;18.62;52.17
2875;BME280;1445;52.600;13.328;2023-05-28T07:24:44;101456.16;;;18.64;50.16
2875;BME280;1445;52.600;13.328;2023-05-28T07:27:10;101450.91;;;18.83;50.86
2875;BME280;1445;52.600;13.328;2023-05-28T07:29:35;101462.59;;;18.86;48.83
2875;BME280;1445;52.600;13.328;2023-05-28T07:32:01;101458.00;;;18.81;49.01
2875;BME280;1445;52.600;13.328;2023-05-28T07:34:27;101459.72;;;18.94;50.37
2875;BME280;1445;52.600;13.328;2023-05-28T07:36:52;101454.72;;;19.21;51.87
2875;BME280;1445;52.600;13.328;2023-05-28T07:39:17;101456.41;;;19.34;53.13
2875;BME280;1445;52.600;13.328;2023-05-28T07:41:43;101453.94;;;19.33;51.02
2875;BME280;1445;52.600;13.328;2023-05-28T07:44:09;101454.56;;;19.38;50.32
2875;BME280;1445;52.600;13.328;2023-05-28T07:46:36;101445.56;;;19.33;50.57
2875;BME280;1445;52.600;13.328;2023-05-28T07:49:02;101439.34;;;19.60;49.24
2875;BME280;1445;52.600;13.328;2023-05-28T07:51:27;101437.06;;;19.74;49.08
2875;BME280;1445;52.600;13.328;2023-05-28T07:53:53;101441.97;;;19.90;48.64
2875;BME280;1445;52.600;13.328;2023-05-28T07:56:20;101443.06;;;19.97;46.48
2875;BME280;1445;52.600;13.328;2023-05-28T07:58:47;101436.66;;;20.09;46.29
2875;BME280;1445;52.600;13.328;2023-05-28T08:01:12;101436.50;;;20.18;45.90
2875;BME280;1445;52.600;13.328;2023-05-28T08:03:38;101442.25;;;20.34;45.50
2875;BME280;1445;52.600;13.328;2023-05-28T08:06:04;101441.41;;;20.21;43.03
2875;BME280;1445;52.600;13.328;2023-05-28T08:08:30;101440.94;;;19.70;43.73
2875;BME280;1445;52.600;13.328;2023-05-28T08:10:55;101428.13;;;19.48;44.61
2875;BME280;1445;52.600;13.328;2023-05-28T08:13:21;101423.56;;;19.76;45.06
2875;BME280;1445;52.600;13.328;2023-05-28T08:15:47;101429.88;;;20.10;46.18
2875;BME280;1445;52.600;13.328;2023-05-28T08:18:12;101434.06;;;20.41;45.62
2875;BME280;1445;52.600;13.328;2023-05-28T08:20:38;101425.78;;;20.57;45.37
2875;BME280;1445;52.600;13.328;2023-05-28T08:23:04;101430.19;;;20.70;45.22
2875;BME280;1445;52.600;13.328;2023-05-28T08:25:30;101424.94;;;20.68;43.23
2875;BME280;1445;52.600;13.328;2023-05-28T08:27:55;101429.38;;;20.69;41.88
2875;BME280;1445;52.600;13.328;2023-05-28T08:30:21;101423.84;;;20.85;42.79
2875;BME280;1445;52.600;13.328;2023-05-28T08:32:47;101421.38;;;21.24;43.20
2875;BME280;1445;52.600;13.328;2023-05-28T08:35:12;101419.59;;;21.48;41.62
2875;BME280;1445;52.600;13.328;2023-05-28T08:37:38;101420.53;;;21.67;40.59
2875;BME280;1445;52.600;13.328;2023-05-28T08:40:05;101419.53;;;21.76;39.55
2875;BME280;1445;52.600;13.328;2023-05-28T08:42:33;101420.91;;;22.13;38.43
2875;BME280;1445;52.600;13.328;2023-05-28T08:44:59;101418.00;;;22.10;37.58
2875;BME280;1445;52.600;13.328;2023-05-28T08:47:25;101416.84;;;22.27;37.21
2875;BME280;1445;52.600;13.328;2023-05-28T08:49:52;101425.88;;;21.29;36.00
2875;BME280;1445;52.600;13.328;2023-05-28T08:52:19;101417.28;;;21.21;36.40
2875;BME280;1445;52.600;13.328;2023-05-28T08:54:48;101413.47;;;21.58;38.02
2875;BME280;1445;52.600;13.328;2023-05-28T08:57:14;101416.66;;;21.72;38.52
2875;BME280;1445;52.600;13.328;2023-05-28T08:59:40;101409.44;;;21.87;36.53
2875;BME280;1445;52.600;13.328;2023-05-28T09:02:08;101412.50;;;21.98;35.50
2875;BME280;1445;52.600;13.328;2023-05-28T09:04:34;101404.97;;;22.02;35.89
2875;BME280;1445;52.600;13.328;2023-05-28T09:06:59;101408.94;;;22.68;35.79
2875;BME280;1445;52.600;13.328;2023-05-28T09:09:25;101398.00;;;22.82;34.78
2875;BME280;1445;52.600;13.328;2023-05-28T09:11:57;101397.44;;;22.92;33.19
2875;BME280;1445;52.600;13.328;2023-05-28T09:14:22;101392.16;;;22.71;34.88
2875;BME280;1445;52.600;13.328;2023-05-28T09:16:48;101391.44;;;23.13;34.10
2875;BME280;1445;52.600;13.328;2023-05-28T09:19:16;101393.75;;;23.30;31.49
2875;BME280;1445;52.600;13.328;2023-05-28T09:21:55;101398.88;;;23.25;31.94
2875;BME280;1445;52.600;13.328;2023-05-28T09:24:23;101395.41;;;23.54;32.71
2875;BME280;1445;52.600;13.328;2023-05-28T09:26:56;101383.22;;;23.93;32.79
2875;BME280;1445;52.600;13.328;2023-05-28T09:29:25;101389.56;;;24.39;31.66
2875;BME280;1445;52.600;13.328;2023-05-28T09:31:58;101384.97;;;24.54;31.73
2875;BME280;1445;52.600;13.328;2023-05-28T09:34:30;101372.91;;;24.87;30.85
2875;BME280;1445;52.600;13.328;2023-05-28T09:37:05;101370.25;;;25.02;30.52
2875;BME280;1445;52.600;13.328;2023-05-28T09:39:31;101374.31;;;24.70;29.65
2875;BME280;1445;52.600;13.328;2023-05-28T09:42:01;101377.75;;;24.87;30.38
2875;BME280;1445;52.600;13.328;2023-05-28T09:44:37;101362.66;;;25.43;29.55
2875;BME280;1445;52.600;13.328;2023-05-28T09:47:17;101362.81;;;25.61;29.18
2875;BME280;1445;52.600;13.328;2023-05-28T09:49:46;101363.91;;;25.93;29.15
2875;BME280;1445;52.600;13.328;2023-05-28T09:52:19;101360.03;;;26.12;29.14
2875;BME280;1445;52.600;13.328;2023-05-28T09:54:46;101363.22;;;26.11;28.69
2875;BME280;1445;52.600;13.328;2023-05-28T09:57:17;101372.88;;;26.03;28.72
2875;BME280;1445;52.600;13.328;2023-05-28T09:59:43;101364.81;;;26.78;28.47
2875;BME280;1445;52.600;13.328;2023-05-28T10:05:19;101363.00;;;27.35;27.27
2875;BME280;1445;52.600;13.328;2023-05-28T10:07:46;101354.16;;;27.91;27.06
2875;BME280;1445;52.600;13.328;2023-05-28T10:10:14;101351.69;;;28.07;25.59
2875;BME280;1445;52.600;13.328;2023-05-28T10:12:40;101345.94;;;28.36;25.46
2875;BME280;1445;52.600;13.328;2023-05-28T10:15:06;101351.66;;;28.25;25.78
2875;BME280;1445;52.600;13.328;2023-05-28T10:17:35;101350.84;;;28.39;26.02
2875;BME280;1445;52.600;13.328;2023-05-28T10:20:01;101341.84;;;28.62;25.07
2875;BME280;1445;52.600;13.328;2023-05-28T10:22:29;101347.50;;;28.69;25.77
2875;BME280;1445;52.600;13.328;2023-05-28T10:24:55;101349.72;;;29.10;24.72
2875;BME280;1445;52.600;13.328;2023-05-28T10:27:28;101341.34;;;28.81;24.77
2875;BME280;1445;52.600;13.328;2023-05-28T10:29:55;101344.69;;;29.39;24.05
2875;BME280;1445;52.600;13.328;2023-05-28T10:32:20;101348.38;;;29.32;24.15
2875;BME280;1445;52.600;13.328;2023-05-28T10:34:46;101355.56;;;29.47;21.72
2875;BME280;1445;52.600;13.328;2023-05-28T10:37:11;101346.91;;;29.65;22.23
2875;BME280;1445;52.600;13.328;2023-05-28T10:39:45;101355.41;;;30.14;22.84
2875;BME280;1445;52.600;13.328;2023-05-28T10:42:17;101349.25;;;30.57;23.36
2875;BME280;1445;52.600;13.328;2023-05-28T10:47:38;101342.22;;;31.53;22.52
2875;BME280;1445;52.600;13.328;2023-05-28T10:50:14;101348.19;;;31.86;21.80
2875;BME280;1445;52.600;13.328;2023-05-28T10:52:40;101351.34;;;31.68;21.83
2875;BME280;1445;52.600;13.328;2023-05-28T10:55:08;101342.53;;;31.59;20.99
2875;BME280;1445;52.600;13.328;2023-05-28T10:57:41;101339.59;;;32.33;19.92
2875;BME280;1445;52.600;13.328;2023-05-28T11:00:08;101326.06;;;32.37;20.32
2875;BME280;1445;52.600;13.328;2023-05-28T11:02:39;101326.28;;;31.79;21.14
2875;BME280;1445;52.600;13.328;2023-05-28T11:05:04;101329.13;;;32.46;19.81
2875;BME280;1445;52.600;13.328;2023-05-28T11:07:34;101327.19;;;32.40;19.84
2875;BME280;1445;52.600;13.328;2023-05-28T11:10:01;101330.03;;;31.53;20.69
2875;BME280;1445;52.600;13.328;2023-05-28T11:12:29;101341.31;;;31.60;20.82
2875;BME280;1445;52.600;13.328;2023-05-28T11:14:58;101341.94;;;30.90;20.83
2875;BME280;1445;52.600;13.328;2023-05-28T11:17:23;101329.56;;;31.27;21.05
2875;BME280;1445;52.600;13.328;2023-05-28T11:19:50;101329.22;;;31.25;20.43
2875;BME280;1445;52.600;13.328;2023-05-28T11:22:18;101328.34;;;31.28;20.22
2875;BME280;1445;52.600;13.328;2023-05-28T11:25:05;101332.09;;;31.99;21.50
2875;BME280;1445;52.600;13.328;2023-05-28T11:27:32;101319.88;;;32.98;19.93
2875;BME280;1445;52.600;13.328;2023-05-28T11:30:02;101311.78;;;33.30;19.92
2875;BME280;1445;52.600;13.328;2023-05-28T11:32:31;101317.25;;;34.18;19.24
2875;BME280;1445;52.600;13.328;2023-05-28T11:34:57;101314.72;;;34.37;17.88
2875;BME280;1445;52.600;13.328;2023-05-28T11:37:30;101309.88;;;34.05;18.48
2875;BME280;1445;52.600;13.328;2023-05-28T11:39:57;101304.63;;;34.87;18.64
2875;BME280;1445;52.600;13.328;2023-05-28T11:42:25;101314.50;;;35.37;17.74
2875;BME280;1445;52.600;13.328;2023-05-28T11:44:51;101311.31;;;35.35;17.06
2875;BME280;1445;52.600;13.328;2023-05-28T11:47:17;101306.78;;;35.94;17.55
2875;BME280;1445;52.600;13.328;2023-05-28T11:49:44;101305.63;;;36.04;17.65
2875;BME280;1445;52.600;13.328;2023-05-28T11:52:11;101304.56;;;36.11;17.29
2875;BME280;1445;52.600;13.328;2023-05-28T11:54:38;101295.56;;;36.00;16.93
2875;BME280;1445;52.600;13.328;2023-05-28T11:57:04;101295.97;;;36.33;16.88
2875;BME280;1445;52.600;13.328;2023-05-28T11:59:31;101281.22;;;36.22;17.02
2875;BME280;1445;52.600;13.328;2023-05-28T12:02:10;101286.91;;;36.13;16.97
2875;BME280;1445;52.600;13.328;2023-05-28T12:04:35;101286.06;;;34.91;17.64
2875;BME280;1445;52.600;13.328;2023-05-28T12:07:01;101286.13;;;36.12;16.26
2875;BME280;1445;52.600;13.328;2023-05-28T12:09:26;101275.34;;;35.69;17.02
2875;BME280;1445;52.600;13.328;2023-05-28T12:12:10;101270.72;;;35.84;17.31
2875;BME280;1445;52.600;13.328;2023-05-28T12:14:36;101273.34;;;35.78;18.03
2875;BME280;1445;52.600;13.328;2023-05-28T12:17:08;101273.09;;;35.38;18.01
2875;BME280;1445;52.600;13.328;2023-05-28T12:19:36;101267.00;;;36.18;17.30
2875;BME280;1445;52.600;13.328;2023-05-28T12:22:13;101259.16;;;37.43;16.30
2875;BME280;1445;52.600;13.328;2023-05-28T12:24:47;101255.94;;;37.32;15.98
2875;BME280;1445;52.600;13.328;2023-05-28T12:27:12;101257.38;;;37.37;16.31
2875;BME280;1445;52.600;13.328;2023-05-28T12:29:38;101242.31;;;37.23;16.47
2875;BME280;1445;52.600;13.328;2023-05-28T12:32:04;101242.41;;;38.06;15.11
2875;BME280;1445;52.600;13.328;2023-05-28T12:34:29;101240.97;;;38.20;14.83
2875;BME280;1445;52.600;13.328;2023-05-28T12:36:55;101248.25;;;37.29;15.14
2875;BME280;1445;52.600;13.328;2023-05-28T12:39:22;101245.28;;;36.39;15.19
2875;BME280;1445;52.600;13.328;2023-05-28T12:41:47;101243.84;;;36.13;15.69
2875;BME280;1445;52.600;13.328;2023-05-28T12:44:13;101239.56;;;36.17;16.86
2875;BME280;1445;52.600;13.328;2023-05-28T12:46:39;101229.22;;;36.73;16.21
2875;BME280;1445;52.600;13.328;2023-05-28T12:49:05;101230.72;;;37.82;15.76
2875;BME280;1445;52.600;13.328;2023-05-28T12:51:30;101220.84;;;37.74;16.20
2875;BME280;1445;52.600;13.328;2023-05-28T12:53:57;101224.00;;;37.85;16.03
2875;BME280;1445;52.600;13.328;2023-05-28T12:56:25;101230.13;;;38.66;15.58
2875;BME280;1445;52.600;13.328;2023-05-28T12:58:54;101216.22;;;38.98;14.39